Time;durP1;ratioP1;P1;durP2;ratioP2;P2;SDS_P1;SDS_P2;PMS_P1;PMS_P2;Temp;Humidity;BMP_temperature;BMP_pressure;BME280_temperature;BME280_humidity;BME280_pressure;Samples;Min_cycle;Max_cycle;Signal;HPM_P1;HPM_P2
2022/11/06 00:01:09;;;;;;;6.30;4.22;;;;;;;;;;4886548;29;20045;-86
2022/11/06 00:03:34;;;;;;;6.93;4.38;;;;;;;;;;4906100;29;20457;-86
2022/11/06 00:08:52;;;;;;;6.20;3.45;;;;;;;;;;4910441;29;20040;-89
2022/11/06 00:11:18;;;;;;;7.28;4.32;;;;;;;;;;4913093;29;20477;-88
2022/11/06 00:13:46;;;;;;;6.20;3.60;;;;;;;;;;4893230;29;20036;-86
2022/11/06 00:16:12;;;;;;;4.38;3.28;;;;;;;;;;4906351;29;20477;-86
2022/11/06 00:18:39;;;;;;;5.85;4.15;;;;;;;;;;4910211;29;20493;-83
2022/11/06 00:21:08;;;;;;;10.60;4.53;;;;;;;;;;4905037;29;20478;-86
2022/11/06 00:23:34;;;;;;;7.55;4.78;;;;;;;;;;4906312;29;20036;-85
2022/11/06 00:25:59;;;;;;;7.38;3.92;;;;;;;;;;4906878;29;20636;-83
2022/11/06 00:28:25;;;;;;;8.77;3.33;;;;;;;;;;4913022;29;20076;-87
2022/11/06 00:30:50;;;;;;;6.07;3.75;;;;;;;;;;4915021;29;20052;-87
2022/11/06 00:33:16;;;;;;;4.07;2.58;;;;;;;;;;4902320;29;20083;-85
2022/11/06 00:35:41;;;;;;;8.98;3.58;;;;;;;;;;4894145;29;20131;-88
2022/11/06 00:38:07;;;;;;;6.68;3.80;;;;;;;;;;4913738;29;20119;-88
2022/11/06 00:40:33;;;;;;;5.93;3.42;;;;;;;;;;4915583;29;20055;-87
2022/11/06 00:42:58;;;;;;;5.88;3.65;;;;;;;;;;4904487;29;20123;-87
2022/11/06 00:45:24;;;;;;;4.63;3.30;;;;;;;;;;4915000;29;20116;-87
2022/11/06 00:47:50;;;;;;;5.55;3.10;;;;;;;;;;4909105;29;20036;-88
2022/11/06 00:50:16;;;;;;;8.75;3.15;;;;;;;;;;4890458;29;20069;-86
2022/11/06 00:52:42;;;;;;;6.25;3.85;;;;;;;;;;4908330;29;20067;-87
2022/11/06 00:55:08;;;;;;;4.97;3.40;;;;;;;;;;4907233;29;20119;-87
2022/11/06 00:57:34;;;;;;;4.30;3.15;;;;;;;;;;4898148;29;20125;-87
2022/11/06 00:59:59;;;;;;;4.90;3.60;;;;;;;;;;4908230;29;20032;-86
2022/11/06 01:02:24;;;;;;;4.20;2.85;;;;;;;;;;4909725;29;20192;-89
2022/11/06 01:04:50;;;;;;;6.53;4.68;;;;;;;;;;4899371;29;20031;-88
2022/11/06 01:07:15;;;;;;;8.50;4.03;;;;;;;;;;4912012;29;20032;-87
2022/11/06 01:09:40;;;;;;;5.18;3.50;;;;;;;;;;4904593;29;20119;-85
2022/11/06 01:12:06;;;;;;;6.38;4.18;;;;;;;;;;4909713;29;20136;-86
2022/11/06 01:14:31;;;;;;;7.72;4.15;;;;;;;;;;4913319;29;20036;-86
2022/11/06 01:16:57;;;;;;;4.82;3.40;;;;;;;;;;4906012;29;20063;-84
2022/11/06 01:19:23;;;;;;;7.35;4.38;;;;;;;;;;4915181;29;20036;-84
2022/11/06 01:21:51;;;;;;;4.57;3.17;;;;;;;;;;4911380;29;20398;-85
2022/11/06 01:24:20;;;;;;;3.33;2.80;;;;;;;;;;4899148;29;20084;-84
2022/11/06 01:26:46;;;;;;;4.93;2.97;;;;;;;;;;4908477;29;20095;-83
2022/11/06 01:29:13;;;;;;;5.55;3.20;;;;;;;;;;4908346;29;20123;-83
2022/11/06 01:31:39;;;;;;;5.55;3.58;;;;;;;;;;4906728;29;20048;-84
2022/11/06 01:34:05;;;;;;;5.07;2.50;;;;;;;;;;4905543;29;20048;-83
2022/11/06 01:36:31;;;;;;;3.83;2.25;;;;;;;;;;4913072;29;20083;-84
2022/11/06 01:38:59;;;;;;;3.60;2.42;;;;;;;;;;4903322;29;20036;-82
2022/11/06 01:41:40;;;;;;;3.33;1.85;;;;;;;;;;4907426;29;20545;-82
2022/11/06 01:44:34;;;;;;;4.75;1.63;;;;;;;;;;4894060;29;20047;-83
2022/11/06 01:47:04;;;;;;;4.40;2.35;;;;;;;;;;4908214;29;20101;-81
2022/11/06 01:49:33;;;;;;;3.60;1.25;;;;;;;;;;4905240;29;20053;-81
2022/11/06 01:52:07;;;;;;;5.63;2.13;;;;;;;;;;4913589;29;20552;-84
2022/11/06 01:54:34;;;;;;;2.70;1.63;;;;;;;;;;4914362;29;20078;-82
2022/11/06 01:57:01;;;;;;;1.50;1.25;;;;;;;;;;4905698;29;20041;-82
2022/11/06 01:59:37;;;;;;;3.58;1.83;;;;;;;;;;4908564;29;20052;-82
2022/11/06 02:02:03;;;;;;;1.77;1.10;;;;;;;;;;4911710;29;20127;-83
2022/11/06 02:04:37;;;;;;;2.85;1.83;;;;;;;;;;4909277;29;20114;-84
2022/11/06 02:07:04;;;;;;;4.25;1.77;;;;;;;;;;4904265;29;20040;-84
2022/11/06 02:09:30;;;;;;;2.08;1.40;;;;;;;;;;4906387;29;20036;-81
2022/11/06 02:12:20;;;;;;;3.58;1.67;;;;;;;;;;4910784;29;20331;-83
2022/11/06 02:15:40;;;;;;;1.63;1.20;;;;;;;;;;4901278;29;20036;-85
2022/11/06 02:18:28;;;;;;;1.58;0.82;;;;;;;;;;4856911;29;20038;-85
2022/11/06 02:21:05;;;;;;;1.27;1.20;;;;;;;;;;4908168;29;20152;-85
2022/11/06 02:24:09;;;;;;;1.90;1.08;;;;;;;;;;4906238;29;20044;-84
2022/11/06 02:26:56;;;;;;;1.25;1.15;;;;;;;;;;4908494;29;20028;-83
2022/11/06 02:29:30;;;;;;;2.25;1.10;;;;;;;;;;4910932;29;20131;-84
2022/11/06 02:31:58;;;;;;;1.70;1.15;;;;;;;;;;4912984;29;20036;-85
2022/11/06 02:34:26;;;;;;;3.47;2.17;;;;;;;;;;4906255;29;20521;-86
2022/11/06 02:37:06;;;;;;;3.05;1.73;;;;;;;;;;4893510;29;20036;-88
2022/11/06 02:39:35;;;;;;;2.08;1.15;;;;;;;;;;4910567;29;20055;-84
2022/11/06 02:42:03;;;;;;;1.70;1.13;;;;;;;;;;4910190;29;20064;-87
2022/11/06 02:44:31;;;;;;;1.00;0.88;;;;;;;;;;4915989;29;20039;-85
2022/11/06 02:47:09;;;;;;;1.65;1.33;;;;;;;;;;4909970;29;20139;-86
2022/11/06 02:49:52;;;;;;;4.47;1.48;;;;;;;;;;4908273;29;20084;-87
2022/11/06 02:52:41;;;;;;;1.48;1.20;;;;;;;;;;4907439;29;20048;-86
2022/11/06 02:55:14;;;;;;;5.65;1.60;;;;;;;;;;4908176;29;20037;-86
2022/11/06 02:57:44;;;;;;;2.05;1.10;;;;;;;;;;4903971;29;20040;-86
2022/11/06 03:00:13;;;;;;;1.65;1.17;;;;;;;;;;4914842;29;20042;-84
2022/11/06 03:02:45;;;;;;;2.42;1.48;;;;;;;;;;4914420;29;20040;-85
2022/11/06 03:05:20;;;;;;;1.27;1.08;;;;;;;;;;4896312;29;20489;-85
2022/11/06 03:08:03;;;;;;;4.22;1.15;;;;;;;;;;4907205;29;20032;-86
2022/11/06 03:10:40;;;;;;;3.60;2.08;;;;;;;;;;4909129;29;20036;-84
2022/11/06 03:13:19;;;;;;;2.63;1.17;;;;;;;;;;4909804;29;20068;-84
2022/11/06 03:15:50;;;;;;;2.60;1.10;;;;;;;;;;4896210;29;20045;-84
2022/11/06 03:18:31;;;;;;;1.88;1.42;;;;;;;;;;4907660;29;20066;-84
2022/11/06 03:21:13;;;;;;;1.77;1.02;;;;;;;;;;4908293;29;20040;-84
2022/11/06 03:24:01;;;;;;;2.92;1.50;;;;;;;;;;4906485;29;20042;-83
2022/11/06 03:26:39;;;;;;;2.22;1.30;;;;;;;;;;4885041;29;20063;-83
2022/11/06 03:29:21;;;;;;;2.55;1.10;;;;;;;;;;4909551;29;20041;-86
2022/11/06 03:32:22;;;;;;;1.60;0.93;;;;;;;;;;4906135;29;20028;-84
2022/11/06 03:34:59;;;;;;;3.25;1.50;;;;;;;;;;4896550;29;20044;-85
2022/11/06 03:37:32;;;;;;;5.30;0.95;;;;;;;;;;4907521;29;20040;-86
2022/11/06 03:40:00;;;;;;;1.08;0.68;;;;;;;;;;4909882;29;20044;-86
2022/11/06 03:42:29;;;;;;;2.13;1.38;;;;;;;;;;4901123;29;20047;-84
2022/11/06 03:45:01;;;;;;;2.25;1.33;;;;;;;;;;4906910;29;20039;-83
2022/11/06 03:47:39;;;;;;;3.22;1.65;;;;;;;;;;4912586;29;20042;-87
2022/11/06 03:50:25;;;;;;;1.33;1.23;;;;;;;;;;4910238;29;20040;-85
2022/11/06 03:53:01;;;;;;;2.00;1.27;;;;;;;;;;4904124;29;20477;-85
2022/11/06 03:55:32;;;;;;;1.30;1.00;;;;;;;;;;4919165;29;20040;-84
2022/11/06 03:58:12;;;;;;;1.77;0.98;;;;;;;;;;4908760;29;20040;-87
2022/11/06 04:00:40;;;;;;;2.13;1.00;;;;;;;;;;4908262;29;20039;-87
2022/11/06 04:03:17;;;;;;;1.23;0.90;;;;;;;;;;4913977;29;20470;-88
2022/11/06 04:05:53;;;;;;;3.30;1.30;;;;;;;;;;4912843;29;20394;-86
2022/11/06 04:13:56;;;;;;;1.60;1.35;;;;;;;;;;4912912;29;20560;-89
2022/11/06 04:16:31;;;;;;;2.10;1.23;;;;;;;;;;4912356;29;20498;-87
2022/11/06 04:18:57;;;;;;;3.67;1.25;;;;;;;;;;4913261;29;20508;-87
2022/11/06 04:21:38;;;;;;;2.75;1.30;;;;;;;;;;4900387;29;20041;-89
2022/11/06 04:27:57;;;;;;;2.05;1.33;;;;;;;;;;4912031;29;20191;-84
2022/11/06 04:30:23;;;;;;;2.42;1.52;;;;;;;;;;4911063;29;20040;-84
2022/11/06 04:32:48;;;;;;;3.20;1.92;;;;;;;;;;4912324;29;20445;-88
2022/11/06 04:35:26;;;;;;;4.30;2.75;;;;;;;;;;4915559;29;20040;-86
2022/11/06 04:38:01;;;;;;;3.13;2.38;;;;;;;;;;4915860;29;20115;-87
2022/11/06 04:40:51;;;;;;;4.80;2.22;;;;;;;;;;4917642;29;20036;-88
2022/11/06 04:43:35;;;;;;;2.30;1.58;;;;;;;;;;4908933;29;20047;-86
2022/11/06 04:46:03;;;;;;;3.17;2.13;;;;;;;;;;4908269;29;20512;-85
2022/11/06 04:48:29;;;;;;;3.80;2.20;;;;;;;;;;4916943;29;20392;-84
2022/11/06 04:51:00;;;;;;;3.78;2.75;;;;;;;;;;4912338;29;20044;-86
2022/11/06 04:53:28;;;;;;;5.32;2.80;;;;;;;;;;4914189;29;20119;-84
2022/11/06 04:56:04;;;;;;;4.07;2.50;;;;;;;;;;4911367;29;20519;-85
2022/11/06 04:58:30;;;;;;;2.92;2.08;;;;;;;;;;4899118;29;20039;-86
2022/11/06 05:00:55;;;;;;;3.67;1.80;;;;;;;;;;4921611;29;20059;-86
2022/11/06 05:03:21;;;;;;;5.05;2.03;;;;;;;;;;4914265;29;20095;-83
2022/11/06 05:05:46;;;;;;;2.65;1.80;;;;;;;;;;4909214;29;20071;-86
2022/11/06 05:08:14;;;;;;;3.45;1.83;;;;;;;;;;4909570;29;20090;-84
2022/11/06 05:10:40;;;;;;;4.35;2.33;;;;;;;;;;4912913;29;20035;-84
2022/11/06 05:13:06;;;;;;;4.13;2.67;;;;;;;;;;4911120;29;20414;-84
2022/11/06 05:15:31;;;;;;;6.97;2.20;;;;;;;;;;4914204;29;20124;-83
2022/11/06 05:17:57;;;;;;;6.50;2.28;;;;;;;;;;4910957;29;20035;-85
2022/11/06 05:20:23;;;;;;;2.28;2.05;;;;;;;;;;4915713;29;20050;-84
2022/11/06 05:23:01;;;;;;;8.35;2.33;;;;;;;;;;4917273;29;20099;-88
2022/11/06 05:25:32;;;;;;;3.03;2.22;;;;;;;;;;4908706;29;20087;-88
2022/11/06 05:27:59;;;;;;;3.35;1.85;;;;;;;;;;4911689;29;20409;-86
2022/11/06 05:30:24;;;;;;;2.60;2.30;;;;;;;;;;4913317;29;20025;-84
2022/11/06 05:32:51;;;;;;;6.97;2.40;;;;;;;;;;4919600;29;20035;-86
2022/11/06 05:35:17;;;;;;;3.63;2.40;;;;;;;;;;4906505;29;20123;-87
2022/11/06 05:37:43;;;;;;;4.65;2.20;;;;;;;;;;4902131;29;20039;-85
2022/11/06 05:40:09;;;;;;;3.88;2.47;;;;;;;;;;4914625;29;20393;-86
2022/11/06 05:42:42;;;;;;;3.08;1.85;;;;;;;;;;4916321;29;20040;-85
2022/11/06 05:45:09;;;;;;;3.17;2.30;;;;;;;;;;4916023;29;20157;-89
2022/11/06 05:47:37;;;;;;;3.03;2.42;;;;;;;;;;4901026;29;20036;-85
2022/11/06 05:50:03;;;;;;;2.40;1.75;;;;;;;;;;4905075;29;20045;-84
2022/11/06 05:52:28;;;;;;;4.82;2.65;;;;;;;;;;4908759;29;20056;-87
2022/11/06 05:54:54;;;;;;;5.82;3.38;;;;;;;;;;4896987;29;20067;-85
2022/11/06 05:57:19;;;;;;;3.65;2.70;;;;;;;;;;4908623;29;20036;-88
2022/11/06 05:59:45;;;;;;;4.22;2.53;;;;;;;;;;4914608;29;20039;-84
2022/11/06 06:02:10;;;;;;;3.60;2.70;;;;;;;;;;4914205;29;20088;-86
2022/11/06 06:04:35;;;;;;;7.20;3.20;;;;;;;;;;4889113;29;20121;-87
2022/11/06 06:07:01;;;;;;;4.47;2.92;;;;;;;;;;4890079;29;20039;-86
2022/11/06 06:09:26;;;;;;;6.95;3.13;;;;;;;;;;4910417;29;20513;-86
2022/11/06 06:11:52;;;;;;;3.28;2.40;;;;;;;;;;4907649;29;20397;-85
2022/11/06 06:14:19;;;;;;;3.75;2.40;;;;;;;;;;4892385;29;20068;-87
2022/11/06 06:16:45;;;;;;;3.65;2.17;;;;;;;;;;4906830;29;20501;-86
2022/11/06 06:19:10;;;;;;;3.25;2.45;;;;;;;;;;4885083;29;20051;-87
2022/11/06 06:21:36;;;;;;;2.88;2.15;;;;;;;;;;4909167;29;20044;-89
2022/11/06 06:24:03;;;;;;;2.88;2.17;;;;;;;;;;4907903;29;20036;-88
2022/11/06 06:26:28;;;;;;;9.85;3.83;;;;;;;;;;4907390;29;20103;-88
2022/11/06 06:28:54;;;;;;;4.85;2.63;;;;;;;;;;4910996;29;20177;-88
2022/11/06 06:31:19;;;;;;;4.18;3.17;;;;;;;;;;4901936;29;20040;-88
2022/11/06 06:33:44;;;;;;;4.22;2.50;;;;;;;;;;4897377;29;20036;-88
2022/11/06 06:36:10;;;;;;;3.45;2.35;;;;;;;;;;4910588;29;20490;-87
2022/11/06 06:38:35;;;;;;;2.60;2.25;;;;;;;;;;4911545;29;20043;-87
2022/11/06 06:41:06;;;;;;;3.65;2.40;;;;;;;;;;4901434;29;20115;-87
2022/11/06 06:43:32;;;;;;;7.25;3.28;;;;;;;;;;4914531;29;20031;-87
2022/11/06 06:46:03;;;;;;;4.55;3.72;;;;;;;;;;4891801;29;20065;-88
2022/11/06 06:48:30;;;;;;;3.67;2.75;;;;;;;;;;4887611;29;20118;-87
2022/11/06 06:50:56;;;;;;;3.58;2.72;;;;;;;;;;4906434;29;20066;-86
2022/11/06 06:53:22;;;;;;;4.05;2.97;;;;;;;;;;4893197;29;20052;-87
2022/11/06 06:55:48;;;;;;;4.38;2.88;;;;;;;;;;4910576;29;20055;-88
2022/11/06 06:58:13;;;;;;;3.05;2.38;;;;;;;;;;4906916;29;20040;-87
2022/11/06 07:00:38;;;;;;;4.25;2.88;;;;;;;;;;4906530;29;20499;-87
2022/11/06 07:03:04;;;;;;;6.22;4.32;;;;;;;;;;4910939;29;20047;-86
2022/11/06 07:05:30;;;;;;;6.30;3.08;;;;;;;;;;4897850;29;20047;-85
2022/11/06 07:07:56;;;;;;;7.72;3.50;;;;;;;;;;4899080;29;20161;-87
2022/11/06 07:10:21;;;;;;;8.55;3.03;;;;;;;;;;4907575;29;20082;-86
2022/11/06 07:12:46;;;;;;;4.80;3.28;;;;;;;;;;4914211;29;20748;-88
2022/11/06 07:15:12;;;;;;;3.50;2.17;;;;;;;;;;4890336;29;20036;-86
2022/11/06 07:17:37;;;;;;;3.90;2.92;;;;;;;;;;4899092;29;20404;-87
2022/11/06 07:20:04;;;;;;;6.00;2.67;;;;;;;;;;4904267;29;20028;-87
2022/11/06 07:22:29;;;;;;;2.85;2.38;;;;;;;;;;4906881;29;20390;-88
2022/11/06 07:24:55;;;;;;;3.17;2.58;;;;;;;;;;4909235;29;20035;-86
2022/11/06 07:27:20;;;;;;;4.82;2.75;;;;;;;;;;4888935;29;20040;-87
2022/11/06 07:29:46;;;;;;;13.77;9.02;;;;;;;;;;4911225;29;20036;-86
2022/11/06 07:32:11;;;;;;;9.73;5.78;;;;;;;;;;4895317;29;20060;-86
2022/11/06 07:34:37;;;;;;;5.03;2.95;;;;;;;;;;4907594;29;20040;-87
2022/11/06 07:37:06;;;;;;;5.40;2.70;;;;;;;;;;4913368;29;20523;-85
2022/11/06 07:39:32;;;;;;;7.70;2.83;;;;;;;;;;4908488;29;20044;-85
2022/11/06 07:41:58;;;;;;;4.78;2.83;;;;;;;;;;4908454;29;20040;-85
2022/11/06 07:44:23;;;;;;;3.90;2.65;;;;;;;;;;4912932;29;20046;-86
2022/11/06 07:46:49;;;;;;;5.05;3.35;;;;;;;;;;4912467;29;20032;-86
2022/11/06 07:49:15;;;;;;;4.57;2.95;;;;;;;;;;4909497;29;20040;-87
2022/11/06 07:51:41;;;;;;;6.22;3.33;;;;;;;;;;4910170;29;20191;-85
2022/11/06 07:54:07;;;;;;;3.30;2.13;;;;;;;;;;4915274;29;20485;-88
2022/11/06 07:56:32;;;;;;;4.47;3.42;;;;;;;;;;4889239;29;20072;-84
2022/11/06 07:58:58;;;;;;;4.95;2.85;;;;;;;;;;4912971;29;20040;-84
2022/11/06 08:01:26;;;;;;;6.70;3.65;;;;;;;;;;4907769;29;20397;-85
2022/11/06 08:03:56;;;;;;;7.22;3.40;;;;;;;;;;4910873;29;20703;-83
2022/11/06 08:06:22;;;;;;;4.97;3.28;;;;;;;;;;4896086;29;20076;-86
2022/11/06 08:09:05;;;;;;;3.97;2.45;;;;;;;;;;4917245;29;20039;-86
2022/11/06 08:11:30;;;;;;;4.22;2.17;;;;;;;;;;4911841;29;20485;-85
2022/11/06 08:14:01;;;;;;;3.42;2.75;;;;;;;;;;4893193;29;20037;-84
2022/11/06 08:16:40;;;;;;;;;;;;;;;;;;;;;
2022/11/06 08:19:17;;;;;;;3.38;2.92;;;;;;;;;;4906363;29;20044;-85
2022/11/06 08:21:58;;;;;;;7.65;2.88;;;;;;;;;;4894391;29;20036;-84
2022/11/06 08:31:44;;;;;;;5.30;2.97;;;;;;;;;;4878594;29;20104;-86
2022/11/06 08:35:05;;;;;;;4.60;2.88;;;;;;;;;;4879587;29;20072;-85
2022/11/06 08:51:59;;;;;;;5.72;3.33;;;;;;;;;;4805460;29;20492;-85
2022/11/06 08:55:06;;;;;;;4.95;3.58;;;;;;;;;;4847080;29;20049;-85
2022/11/06 09:01:29;;;;;;;;;;;;;;;;;;;;;
2022/11/06 09:04:33;;;;;;;6.82;3.97;;;;;;;;;;4825409;29;20165;-85
2022/11/06 09:07:40;;;;;;;4.57;3.55;;;;;;;;;;4878896;29;20048;-85
2022/11/06 09:11:15;;;;;;;6.13;3.67;;;;;;;;;;4851201;29;20407;-85
2022/11/06 09:13:49;;;;;;;;;;;;;;;;;;;;;
2022/11/06 09:17:22;;;;;;;;;;;;;;;;;;;;;
2022/11/06 09:24:04;;;;;;;5.80;2.90;;;;;;;;;;4761828;30;20191;-85
2022/11/06 09:26:55;;;;;;;4.50;2.70;;;;;;;;;;4748032;30;20330;-84
2022/11/06 09:43:31;;;;;;;4.22;3.20;;;;;;;;;;4797740;29;20057;-85
2022/11/06 09:46:50;;;;;;;3.85;2.63;;;;;;;;;;4846461;29;20049;-85
2022/11/06 09:52:50;;;;;;;10.80;6.03;;;;;;;;;;4858331;29;20526;-87
2022/11/06 09:55:38;;;;;;;6.78;3.47;;;;;;;;;;4843703;29;20488;-85
2022/11/06 09:58:42;;;;;;;2.55;2.00;;;;;;;;;;4857179;29;20045;-86
2022/11/06 10:01:27;;;;;;;6.85;3.88;;;;;;;;;;4871476;29;20029;-86
2022/11/06 10:04:03;;;;;;;4.78;2.63;;;;;;;;;;4878175;29;20510;-87
2022/11/06 10:06:33;;;;;;;5.05;3.00;;;;;;;;;;4918505;29;20031;-90
2022/11/06 10:09:01;;;;;;;3.17;2.60;;;;;;;;;;4901185;29;20051;-84
2022/11/06 10:11:51;;;;;;;3.75;3.05;;;;;;;;;;4917116;29;20043;-88
2022/11/06 10:14:42;;;;;;;9.52;5.38;;;;;;;;;;4918660;29;20079;-85
2022/11/06 10:17:40;;;;;;;5.57;3.20;;;;;;;;;;4923886;29;20035;-88
2022/11/06 10:20:18;;;;;;;6.70;3.75;;;;;;;;;;4881110;29;20091;-86
2022/11/06 10:23:17;;;;;;;6.80;4.22;;;;;;;;;;4912364;29;20040;-85
2022/11/06 10:25:44;;;;;;;5.22;3.38;;;;;;;;;;4924133;29;20046;-86
2022/11/06 10:28:37;;;;;;;5.95;3.83;;;;;;;;;;4922379;29;20103;-86
2022/11/06 10:31:54;;;;;;;5.07;3.25;;;;;;;;;;4921884;29;20043;-84
2022/11/06 10:34:28;;;;;;;5.82;2.80;;;;;;;;;;4899678;29;20485;-85
2022/11/06 10:37:00;;;;;;;3.83;2.17;;;;;;;;;;4920524;29;20035;-86
2022/11/06 10:39:30;;;;;;;3.75;2.80;;;;;;;;;;4916819;29;20028;-87
2022/11/06 10:42:19;;;;;;;8.68;2.65;;;;;;;;;;4899055;29;20461;-85
2022/11/06 10:44:48;;;;;;;8.10;2.72;;;;;;;;;;4898299;29;20057;-86
2022/11/06 10:47:20;;;;;;;4.32;3.05;;;;;;;;;;4895231;29;20119;-88
2022/11/06 10:50:10;;;;;;;4.47;2.45;;;;;;;;;;4894375;29;20108;-88
2022/11/06 10:52:59;;;;;;;3.25;2.53;;;;;;;;;;4872500;29;20067;-87
2022/11/06 10:55:24;;;;;;;6.35;3.25;;;;;;;;;;4882783;29;20486;-88
2022/11/06 10:57:59;;;;;;;5.10;3.83;;;;;;;;;;4894290;29;20056;-86
2022/11/06 11:00:25;;;;;;;4.10;3.28;;;;;;;;;;4893828;29;20037;-87
2022/11/06 11:02:54;;;;;;;5.80;3.20;;;;;;;;;;4892174;29;20092;-87
2022/11/06 11:05:23;;;;;;;5.28;3.83;;;;;;;;;;4896483;29;20036;-88
2022/11/06 11:07:49;;;;;;;6.47;3.25;;;;;;;;;;4895074;29;20032;-87
2022/11/06 11:10:31;;;;;;;2.60;2.33;;;;;;;;;;4885407;29;20582;-87
2022/11/06 11:12:59;;;;;;;6.68;3.67;;;;;;;;;;4895263;29;20032;-87
2022/11/06 11:15:27;;;;;;;6.20;3.25;;;;;;;;;;4893507;29;20051;-88
2022/11/06 11:18:10;;;;;;;5.10;3.15;;;;;;;;;;4895843;29;20038;-86
2022/11/06 11:20:45;;;;;;;3.50;2.42;;;;;;;;;;4880344;29;20037;-87
2022/11/06 11:23:17;;;;;;;3.42;2.20;;;;;;;;;;4891446;29;20366;-87
2022/11/06 11:25:54;;;;;;;3.78;2.00;;;;;;;;;;4885489;29;20040;-89
2022/11/06 11:28:21;;;;;;;2.05;1.48;;;;;;;;;;4882928;29;20043;-87
2022/11/06 11:30:52;;;;;;;5.47;2.53;;;;;;;;;;4876536;29;20112;-88
2022/11/06 11:33:20;;;;;;;2.15;1.65;;;;;;;;;;4881710;29;20044;-87
2022/11/06 11:35:48;;;;;;;4.18;2.17;;;;;;;;;;4885814;29;20052;-87
2022/11/06 11:38:15;;;;;;;4.65;2.67;;;;;;;;;;4890187;29;20044;-86
2022/11/06 11:40:42;;;;;;;1.98;1.70;;;;;;;;;;4893394;29;20108;-88
2022/11/06 11:43:26;;;;;;;5.47;2.63;;;;;;;;;;4890127;29;20029;-87
2022/11/06 11:46:07;;;;;;;4.95;2.72;;;;;;;;;;4908449;29;20037;-87
2022/11/06 11:48:56;;;;;;;4.47;2.55;;;;;;;;;;4898698;29;20040;-85
2022/11/06 11:51:41;;;;;;;4.32;2.35;;;;;;;;;;4909065;29;20036;-87
2022/11/06 11:54:12;;;;;;;3.47;2.28;;;;;;;;;;4906942;29;20216;-88
2022/11/06 11:56:52;;;;;;;2.28;1.67;;;;;;;;;;4906728;29;20397;-87
2022/11/06 11:59:30;;;;;;;6.05;2.95;;;;;;;;;;4913182;29;20039;-86
2022/11/06 12:02:25;;;;;;;6.20;3.35;;;;;;;;;;4898716;29;20087;-87
2022/11/06 12:04:56;;;;;;;3.13;2.45;;;;;;;;;;4917949;29;20388;-87
2022/11/06 12:07:28;;;;;;;2.92;2.67;;;;;;;;;;4914299;29;20066;-88
2022/11/06 12:09:53;;;;;;;2.50;1.90;;;;;;;;;;4911071;29;20037;-87
2022/11/06 12:12:32;;;;;;;4.00;2.28;;;;;;;;;;4906341;29;20040;-88
2022/11/06 12:15:21;;;;;;;2.10;1.83;;;;;;;;;;4913681;29;20738;-88
2022/11/06 12:18:15;;;;;;;1.92;1.45;;;;;;;;;;4910973;29;20036;-86
2022/11/06 12:20:55;;;;;;;1.80;1.50;;;;;;;;;;4904373;29;20052;-87
2022/11/06 12:23:52;;;;;;;2.85;1.90;;;;;;;;;;4912690;29;20493;-86
2022/11/06 12:26:44;;;;;;;3.22;1.90;;;;;;;;;;4891742;29;20047;-84
2022/11/06 12:29:21;;;;;;;7.15;3.67;;;;;;;;;;4910742;29;20049;-87
2022/11/06 12:31:57;;;;;;;4.35;2.88;;;;;;;;;;4908123;29;20044;-85
2022/11/06 12:34:47;;;;;;;4.18;2.95;;;;;;;;;;4909358;29;20060;-87
2022/11/06 12:37:18;;;;;;;4.53;2.63;;;;;;;;;;4907409;29;20032;-84
2022/11/06 12:39:56;;;;;;;5.32;3.60;;;;;;;;;;4904774;29;20042;-88
2022/11/06 12:42:27;;;;;;;4.68;3.28;;;;;;;;;;4901256;29;20043;-86
2022/11/06 12:44:53;;;;;;;4.75;3.25;;;;;;;;;;4919667;29;20079;-86
2022/11/06 12:47:34;;;;;;;5.88;4.00;;;;;;;;;;4910857;29;20068;-86
2022/11/06 12:50:17;;;;;;;4.18;2.65;;;;;;;;;;4912169;29;20489;-87
2022/11/06 12:53:03;;;;;;;4.70;3.03;;;;;;;;;;4908747;29;20044;-84
2022/11/06 12:55:36;;;;;;;4.07;2.60;;;;;;;;;;4903767;29;20694;-88
2022/11/06 12:58:04;;;;;;;6.60;3.35;;;;;;;;;;4908212;29;20035;-88
2022/11/06 13:00:41;;;;;;;4.03;2.72;;;;;;;;;;4903277;29;20496;-88
2022/11/06 13:03:27;;;;;;;6.97;5.22;;;;;;;;;;4912048;29;20033;-87
2022/11/06 13:06:28;;;;;;;10.43;7.47;;;;;;;;;;4916196;29;20210;-86
2022/11/06 13:09:23;;;;;;;17.05;9.43;;;;;;;;;;4894764;29;20572;-88
2022/11/06 13:11:56;;;;;;;13.32;7.25;;;;;;;;;;4916336;29;20521;-84
2022/11/06 13:14:32;;;;;;;7.47;3.80;;;;;;;;;;4912878;29;20043;-86
2022/11/06 13:17:16;;;;;;;3.80;2.80;;;;;;;;;;4911714;29;20050;-85
2022/11/06 13:19:53;;;;;;;4.88;3.15;;;;;;;;;;4899189;29;20044;-86
2022/11/06 13:22:40;;;;;;;4.78;3.10;;;;;;;;;;4909666;29;20504;-85
2022/11/06 13:25:24;;;;;;;4.18;2.83;;;;;;;;;;4898275;29;20044;-87
2022/11/06 13:28:04;;;;;;;4.32;2.50;;;;;;;;;;4909210;29;20044;-85
2022/11/06 13:30:30;;;;;;;5.28;2.80;;;;;;;;;;4917170;29;20098;-84
2022/11/06 13:33:07;;;;;;;4.18;1.80;;;;;;;;;;4912896;29;20036;-85
2022/11/06 13:35:36;;;;;;;5.88;2.55;;;;;;;;;;4913350;29;20043;-85
2022/11/06 13:38:06;;;;;;;3.80;2.80;;;;;;;;;;4910365;29;20094;-85
2022/11/06 13:40:36;;;;;;;5.47;3.03;;;;;;;;;;4916096;29;20079;-86
2022/11/06 13:43:10;;;;;;;4.15;2.63;;;;;;;;;;4914283;29;20068;-86
2022/11/06 13:45:45;;;;;;;7.47;3.17;;;;;;;;;;4911836;29;20047;-85
2022/11/06 13:48:32;;;;;;;3.38;2.53;;;;;;;;;;4916179;29;20040;-86
2022/11/06 13:51:22;;;;;;;4.57;2.70;;;;;;;;;;4914110;29;20609;-84
2022/11/06 13:53:59;;;;;;;30.42;19.65;;;;;;;;;;4914385;29;20044;-86
2022/11/06 13:56:52;;;;;;;11.02;4.05;;;;;;;;;;4913047;29;20100;-87
2022/11/06 13:59:31;;;;;;;5.88;3.53;;;;;;;;;;4909019;29;20043;-85
2022/11/06 14:02:20;;;;;;;3.73;2.83;;;;;;;;;;4912556;29;20049;-86
2022/11/06 14:04:57;;;;;;;5.93;3.58;;;;;;;;;;4908263;29;20036;-85
2022/11/06 14:07:27;;;;;;;5.35;2.53;;;;;;;;;;4910801;29;20040;-87
2022/11/06 14:09:53;;;;;;;2.30;1.73;;;;;;;;;;4899268;29;20059;-84
2022/11/06 14:12:21;;;;;;;4.35;2.63;;;;;;;;;;4907606;29;20032;-88
2022/11/06 14:14:47;;;;;;;4.55;2.05;;;;;;;;;;4908473;29;20044;-87
2022/11/06 14:17:22;;;;;;;5.78;2.67;;;;;;;;;;4906780;29;20032;-84
2022/11/06 14:19:50;;;;;;;7.65;2.97;;;;;;;;;;4912058;29;20035;-87
2022/11/06 14:22:30;;;;;;;3.90;2.15;;;;;;;;;;4916709;29;20043;-87
2022/11/06 14:24:58;;;;;;;2.50;1.90;;;;;;;;;;4905637;29;20544;-85
2022/11/06 14:27:23;;;;;;;8.02;3.53;;;;;;;;;;4882097;29;20049;-86
2022/11/06 14:30:04;;;;;;;6.63;3.65;;;;;;;;;;4886660;29;20040;-87
2022/11/06 14:32:29;;;;;;;3.83;2.33;;;;;;;;;;4907975;29;20438;-87
2022/11/06 14:34:54;;;;;;;3.03;2.15;;;;;;;;;;4913010;29;20047;-85
2022/11/06 14:37:26;;;;;;;4.85;2.20;;;;;;;;;;4907929;29;20040;-86
2022/11/06 14:39:54;;;;;;;2.67;1.85;;;;;;;;;;4909173;29;20032;-85
2022/11/06 14:42:35;;;;;;;3.17;1.88;;;;;;;;;;4911051;29;20063;-86
2022/11/06 14:45:09;;;;;;;4.97;2.70;;;;;;;;;;4909814;29;20448;-85
2022/11/06 14:47:35;;;;;;;3.95;2.25;;;;;;;;;;4908670;29;20397;-84
2022/11/06 14:50:34;;;;;;;3.35;2.50;;;;;;;;;;4907838;29;20393;-85
2022/11/06 14:53:03;;;;;;;7.43;3.60;;;;;;;;;;4892626;29;20035;-86
2022/11/06 14:55:36;;;;;;;3.63;2.45;;;;;;;;;;4913423;29;20115;-83
2022/11/06 14:58:32;;;;;;;4.00;2.40;;;;;;;;;;4908950;29;20028;-86
2022/11/06 15:01:09;;;;;;;4.28;2.42;;;;;;;;;;4915541;29;20561;-85
2022/11/06 15:03:54;;;;;;;2.90;2.03;;;;;;;;;;4909956;29;20486;-87
2022/11/06 15:06:32;;;;;;;1.52;1.35;;;;;;;;;;4915194;29;20032;-85
2022/11/06 15:09:00;;;;;;;2.75;1.35;;;;;;;;;;4914399;29;20033;-85
2022/11/06 15:11:28;;;;;;;1.65;1.55;;;;;;;;;;4906168;29;20548;-89
2022/11/06 15:14:15;;;;;;;2.67;1.88;;;;;;;;;;4915490;29;20047;-88
2022/11/06 15:17:11;;;;;;;3.30;1.73;;;;;;;;;;4891285;29;20449;-85
2022/11/06 15:19:39;;;;;;;2.90;1.92;;;;;;;;;;4909540;29;20764;-86
2022/11/06 15:22:07;;;;;;;2.65;1.65;;;;;;;;;;4898304;29;20032;-88
2022/11/06 15:24:37;;;;;;;2.20;1.65;;;;;;;;;;4907907;29;20035;-88
2022/11/06 15:27:10;;;;;;;2.78;1.70;;;;;;;;;;4907570;29;20067;-86
2022/11/06 15:29:40;;;;;;;2.10;1.50;;;;;;;;;;4905654;29;20123;-85
2022/11/06 15:32:20;;;;;;;3.17;2.47;;;;;;;;;;4912023;29;20032;-86
2022/11/06 15:34:53;;;;;;;2.83;1.92;;;;;;;;;;4899337;29;20040;-85
2022/11/06 15:37:23;;;;;;;2.83;1.65;;;;;;;;;;4901025;29;20047;-86
2022/11/06 15:39:57;;;;;;;1.92;1.40;;;;;;;;;;4906599;29;20582;-87
2022/11/06 15:42:26;;;;;;;0.95;0.95;;;;;;;;;;4902938;29;20036;-87
2022/11/06 15:45:07;;;;;;;2.78;1.92;;;;;;;;;;4905602;29;20056;-89
2022/11/06 15:47:34;;;;;;;1.42;1.13;;;;;;;;;;4916432;29;20164;-87
2022/11/06 15:50:21;;;;;;;2.10;1.27;;;;;;;;;;4915203;29;20032;-86
2022/11/06 15:52:47;;;;;;;1.73;1.02;;;;;;;;;;4911607;29;20040;-88
2022/11/06 15:55:57;;;;;;;5.85;1.83;;;;;;;;;;4900956;29;20393;-89
2022/11/06 15:58:29;;;;;;;;;;;;;;;;;;4909178;29;20047;-82
2022/11/06 16:00:55;;;;;;;0.98;0.68;;;;;;;;;;4920059;29;20061;-85
2022/11/06 16:03:23;;;;;;;1.58;1.10;;;;;;;;;;4917127;29;20126;-84
2022/11/06 16:05:49;;;;;;;1.10;0.77;;;;;;;;;;4915912;29;20128;-83
2022/11/06 16:08:17;;;;;;;2.05;1.17;;;;;;;;;;4914336;29;20036;-85
2022/11/06 16:10:47;;;;;;;1.23;1.08;;;;;;;;;;4920172;29;20496;-85
2022/11/06 16:13:14;;;;;;;1.08;0.93;;;;;;;;;;4919384;29;20397;-85
2022/11/06 16:15:57;;;;;;;1.50;1.20;;;;;;;;;;4899177;29;20092;-85
2022/11/06 16:18:28;;;;;;;1.90;1.15;;;;;;;;;;4911331;29;20044;-84
2022/11/06 16:21:21;;;;;;;1.92;1.38;;;;;;;;;;4910828;29;20032;-85
2022/11/06 16:23:51;;;;;;;1.35;0.98;;;;;;;;;;4891876;29;20118;-85
2022/11/06 16:26:31;;;;;;;2.58;1.75;;;;;;;;;;4913800;29;20043;-87